createdAt,value
2023-04-07T00:00:09.010Z,8.13
2023-04-07T00:02:37.045Z,12.48
2023-04-07T00:05:04.936Z,7.45
2023-04-07T00:07:33.885Z,8.57
2023-04-07T00:10:05.206Z,7.72
2023-04-07T00:12:34.455Z,6.32
2023-04-07T00:15:02.100Z,7.32
2023-04-07T00:17:31.251Z,8.13
2023-04-07T00:19:58.904Z,8.35
2023-04-07T00:22:26.638Z,7.07
2023-04-07T00:24:54.498Z,11.88
2023-04-07T00:27:23.420Z,5.82
2023-04-07T00:29:55.316Z,6.63
2023-04-07T00:32:23.169Z,6.95
2023-04-07T00:34:51.120Z,10.20
2023-04-07T00:37:19.336Z,5.65
2023-04-07T00:39:47.439Z,6.05
2023-04-07T00:42:15.454Z,10.50
2023-04-07T00:44:43.115Z,6.72
2023-04-07T00:47:12.729Z,8.32
2023-04-07T00:49:40.384Z,8.63
2023-04-07T00:52:09.192Z,7.60
2023-04-07T00:54:36.893Z,11.02
2023-04-07T00:57:04.573Z,10.48
2023-04-07T00:59:32.653Z,8.85
2023-04-07T01:02:04.207Z,6.13
2023-04-07T01:04:34.690Z,7.82
2023-04-07T01:07:05.125Z,13.30
2023-04-07T01:09:36.930Z,8.15
2023-04-07T01:12:08.893Z,14.40
2023-04-07T01:14:38.828Z,8.07
2023-04-07T01:17:08.075Z,13.73
2023-04-07T01:19:38.399Z,5.85
2023-04-07T01:22:08.870Z,7.22
2023-04-07T01:24:47.277Z,8.70
2023-04-07T01:27:20.168Z,8.70
2023-04-07T01:29:50.911Z,12.35
2023-04-07T01:32:20.403Z,9.25
2023-04-07T01:34:49.268Z,10.82
2023-04-07T01:37:17.640Z,9.00
2023-04-07T01:39:45.929Z,10.20
2023-04-07T01:42:14.020Z,9.63
2023-04-07T01:44:42.178Z,10.13
2023-04-07T01:47:11.292Z,9.63
2023-04-07T01:49:39.241Z,11.55
2023-04-07T01:52:07.302Z,9.88
2023-04-07T01:54:36.540Z,10.70
2023-04-07T01:57:04.259Z,7.57
2023-04-07T01:59:32.537Z,10.15
2023-04-07T02:02:00.569Z,7.47
2023-04-07T02:04:32.629Z,8.85
2023-04-07T02:07:03.080Z,7.30
2023-04-07T02:09:32.696Z,8.05
2023-04-07T02:12:02.114Z,5.18
2023-04-07T02:14:29.906Z,6.60
2023-04-07T02:16:58.253Z,9.75
2023-04-07T02:19:26.277Z,7.13
2023-04-07T02:21:55.658Z,13.88
2023-04-07T02:24:23.246Z,7.88
2023-04-07T02:26:51.175Z,6.28
2023-04-07T02:29:18.840Z,11.35
2023-04-07T02:31:46.534Z,8.07
2023-04-07T02:34:14.203Z,9.70
2023-04-07T02:36:42.035Z,10.20
2023-04-07T02:39:11.617Z,10.30
2023-04-07T02:41:39.337Z,9.15
2023-04-07T02:44:07.079Z,6.10
2023-04-07T02:46:35.316Z,5.35
2023-04-07T02:49:03.163Z,8.35
2023-04-07T02:51:31.351Z,6.82
2023-04-07T02:53:59.144Z,9.93
2023-04-07T02:56:28.142Z,9.43
2023-04-07T02:58:55.773Z,7.53
2023-04-07T03:01:23.420Z,11.88
2023-04-07T03:03:51.262Z,9.77
2023-04-07T03:06:19.058Z,11.27
2023-04-07T03:08:46.700Z,11.50
2023-04-07T03:11:14.389Z,10.23
2023-04-07T03:13:43.433Z,9.60
2023-04-07T03:16:11.751Z,16.10
2023-04-07T03:18:39.490Z,12.25
2023-04-07T03:21:07.431Z,22.50
2023-04-07T03:23:35.168Z,26.35
2023-04-07T03:26:02.790Z,12.38
2023-04-07T03:28:30.669Z,13.82
2023-04-07T03:30:59.874Z,15.63
2023-04-07T03:33:27.496Z,16.60
2023-04-07T03:35:55.143Z,17.98
2023-04-07T03:38:23.007Z,14.82
2023-04-07T03:40:50.933Z,16.15
2023-04-07T03:43:18.600Z,16.20
2023-04-07T03:45:46.600Z,14.43
2023-04-07T03:48:15.742Z,17.50
2023-04-07T03:50:43.365Z,12.60
2023-04-07T03:53:17.155Z,14.18
2023-04-07T03:55:44.827Z,14.73
2023-04-07T03:58:12.720Z,17.30
2023-04-07T04:00:40.776Z,13.82
2023-04-07T04:03:08.549Z,14.77
2023-04-07T04:05:37.718Z,20.65
2023-04-07T04:08:05.810Z,16.35
2023-04-07T04:10:33.419Z,17.20
2023-04-07T04:13:03.709Z,18.38
2023-04-07T04:15:31.354Z,19.60
2023-04-07T04:17:59.096Z,16.70
2023-04-07T04:20:27.071Z,22.80
2023-04-07T04:22:56.072Z,18.83
2023-04-07T04:25:23.870Z,21.02
2023-04-07T04:27:51.786Z,24.40
2023-04-07T04:30:19.584Z,23.63
2023-04-07T04:32:47.653Z,18.85
2023-04-07T04:35:15.592Z,20.05
2023-04-07T04:37:44.097Z,22.67
2023-04-07T04:40:14.652Z,23.02
2023-04-07T04:42:42.540Z,22.30
2023-04-07T04:45:11.136Z,20.80
2023-04-07T04:47:39.863Z,25.63
2023-04-07T04:50:09.091Z,19.10
2023-04-07T04:52:38.145Z,20.95
2023-04-07T04:55:06.110Z,24.85
2023-04-07T04:57:36.269Z,24.33
2023-04-07T05:00:04.553Z,18.38
2023-04-07T05:02:33.672Z,21.02
2023-04-07T05:05:01.606Z,23.20
2023-04-07T05:07:29.438Z,26.67
2023-04-07T05:09:57.110Z,20.92
2023-04-07T05:12:24.759Z,27.85
2023-04-07T05:14:53.738Z,25.77
2023-04-07T05:17:21.583Z,24.88
2023-04-07T05:19:49.296Z,33.25
2023-04-07T05:22:17.244Z,29.52
2023-04-07T05:24:44.989Z,21.13
2023-04-07T05:27:12.592Z,27.05
2023-04-07T05:29:40.188Z,24.92
2023-04-07T05:32:09.326Z,26.40
2023-04-07T05:34:37.012Z,23.10
2023-04-07T05:37:04.785Z,28.98
2023-04-07T05:39:32.482Z,24.08
2023-04-07T05:42:00.450Z,27.20
2023-04-07T05:44:28.110Z,22.52
2023-04-07T05:46:57.203Z,27.73
2023-04-07T05:49:26.543Z,26.27
2023-04-07T05:51:54.190Z,19.42
2023-04-07T05:54:22.047Z,23.40
2023-04-07T05:56:49.803Z,22.45
2023-04-07T05:59:17.554Z,25.35
2023-04-07T06:01:45.241Z,24.75
2023-04-07T06:04:12.964Z,23.92
2023-04-07T06:06:41.953Z,22.88
2023-04-07T06:09:11.054Z,29.58
2023-04-07T06:11:38.713Z,28.30
2023-04-07T06:14:06.310Z,22.90
2023-04-07T06:16:33.990Z,23.25
2023-04-07T06:19:02.518Z,23.15
2023-04-07T06:21:36.283Z,23.23
2023-04-07T06:24:05.404Z,17.52
2023-04-07T06:26:33.202Z,17.85
2023-04-07T06:29:01.201Z,16.35
2023-04-07T06:31:29.432Z,20.85
2023-04-07T06:33:57.041Z,20.98
2023-04-07T06:36:24.921Z,21.73
2023-04-07T06:38:52.603Z,18.50
2023-04-07T06:41:21.699Z,21.70
2023-04-07T06:43:51.347Z,16.40
2023-04-07T06:46:20.927Z,16.77
2023-04-07T06:48:48.732Z,19.67
2023-04-07T06:51:16.454Z,16.02
2023-04-07T06:53:44.349Z,14.45
2023-04-07T06:56:12.597Z,13.35
2023-04-07T06:58:42.016Z,15.32
2023-04-07T07:01:09.697Z,15.40
2023-04-07T07:03:37.486Z,15.45
2023-04-07T07:06:05.613Z,12.68
2023-04-07T07:08:33.255Z,18.73
2023-04-07T07:11:01.108Z,13.43
2023-04-07T07:13:29.498Z,12.43
2023-04-07T07:15:59.296Z,16.13
2023-04-07T07:18:27.326Z,17.25
2023-04-07T07:20:55.460Z,15.52
2023-04-07T07:23:23.300Z,13.02
2023-04-07T07:25:50.958Z,14.95
2023-04-07T07:28:18.728Z,16.90
2023-04-07T07:30:46.402Z,22.83
2023-04-07T07:33:15.492Z,18.10
2023-04-07T07:35:43.224Z,16.70
2023-04-07T07:38:10.885Z,18.10
2023-04-07T07:40:38.510Z,15.77
2023-04-07T07:43:06.225Z,15.43
2023-04-07T07:45:34.653Z,13.52
2023-04-07T07:48:02.347Z,11.50
2023-04-07T07:50:31.391Z,14.65
2023-04-07T07:52:59.400Z,10.10
2023-04-07T07:55:27.020Z,10.30
2023-04-07T07:57:54.878Z,13.13
2023-04-07T08:00:24.037Z,8.63
2023-04-07T08:02:51.782Z,9.05
2023-04-07T08:05:19.477Z,7.80
2023-04-07T08:07:48.936Z,6.97
2023-04-07T08:10:16.602Z,6.55
2023-04-07T08:12:44.445Z,7.15
2023-04-07T08:15:12.199Z,7.57
2023-04-07T08:17:39.910Z,5.95
2023-04-07T08:20:08.464Z,4.53
2023-04-07T08:22:36.241Z,8.88
2023-04-07T08:25:05.475Z,6.95
2023-04-07T08:27:33.125Z,5.35
2023-04-07T08:30:03.372Z,6.57
2023-04-07T08:32:35.635Z,6.07
2023-04-07T08:35:03.324Z,7.30
2023-04-07T08:37:31.379Z,8.13
2023-04-07T08:39:59.038Z,7.20
2023-04-07T08:42:30.340Z,6.45
2023-04-07T08:45:00.240Z,7.93
2023-04-07T08:47:29.305Z,8.07
2023-04-07T08:49:58.274Z,7.15
2023-04-07T08:52:28.553Z,6.47
2023-04-07T08:54:56.237Z,6.85
2023-04-07T08:57:23.868Z,6.07
2023-04-07T08:59:52.903Z,6.97
2023-04-07T09:02:21.019Z,6.45
2023-04-07T09:04:48.740Z,4.95
2023-04-07T09:07:16.375Z,6.03
2023-04-07T09:09:43.993Z,4.82
2023-04-07T09:12:11.684Z,4.03
2023-04-07T09:14:39.484Z,4.50
2023-04-07T09:17:09.130Z,3.55
2023-04-07T09:19:38.213Z,7.78
2023-04-07T09:22:05.914Z,5.65
2023-04-07T09:24:33.494Z,6.63
2023-04-07T09:27:11.383Z,8.93
2023-04-07T09:29:41.406Z,4.55
2023-04-07T09:32:10.572Z,2.90
2023-04-07T09:34:41.046Z,7.13
2023-04-07T09:37:09.587Z,6.32
2023-04-07T09:39:49.991Z,5.50
2023-04-07T09:42:17.703Z,5.03
2023-04-07T09:44:45.506Z,4.55
2023-04-07T09:47:14.467Z,10.60
2023-04-07T09:49:53.823Z,6.28
2023-04-07T09:52:23.722Z,4.47
2023-04-07T09:54:52.123Z,5.22
2023-04-07T09:57:20.170Z,9.48
2023-04-07T09:59:48.674Z,4.85
2023-04-07T10:02:18.110Z,6.70
2023-04-07T10:04:45.942Z,5.72
2023-04-07T10:07:15.360Z,6.18
2023-04-07T10:09:43.173Z,2.78
2023-04-07T10:12:10.942Z,9.18
2023-04-07T10:14:40.233Z,5.75
2023-04-07T10:17:08.766Z,1.92
2023-04-07T10:19:38.297Z,1.50
2023-04-07T10:22:07.050Z,3.35
2023-04-07T10:24:40.514Z,1.63
2023-04-07T10:27:11.875Z,3.13
2023-04-07T10:29:42.130Z,1.88
2023-04-07T10:32:09.817Z,2.95
2023-04-07T10:35:07.569Z,3.08
2023-04-07T10:37:37.507Z,3.70
2023-04-07T10:40:29.105Z,3.05
2023-04-07T10:42:57.756Z,3.00
2023-04-07T10:45:44.599Z,3.72
2023-04-07T10:48:12.866Z,3.13
2023-04-07T10:50:40.578Z,3.05
2023-04-07T10:53:10.693Z,3.97
2023-04-07T10:55:39.219Z,2.03
2023-04-07T10:58:23.109Z,1.60
2023-04-07T11:01:09.227Z,1.88
2023-04-07T11:03:38.753Z,1.55
2023-04-07T11:06:08.269Z,0.77
2023-04-07T11:08:38.169Z,0.93
2023-04-07T11:11:09.121Z,2.75
2023-04-07T11:13:41.686Z,2.42
2023-04-07T11:16:09.947Z,2.88
2023-04-07T11:18:37.869Z,2.17
2023-04-07T11:21:09.290Z,4.43
2023-04-07T11:23:40.908Z,2.63
2023-04-07T11:26:10.174Z,4.00
2023-04-07T11:28:46.148Z,4.65
2023-04-07T11:31:14.513Z,5.40
2023-04-07T11:33:43.843Z,0.90
2023-04-07T11:36:11.788Z,5.07
2023-04-07T11:38:44.340Z,4.13
2023-04-07T11:41:13.617Z,0.80
2023-04-07T11:43:42.590Z,2.40
2023-04-07T11:46:11.584Z,2.85
2023-04-07T11:48:40.324Z,1.70
2023-04-07T11:51:08.809Z,3.83
2023-04-07T11:53:38.137Z,1.25
2023-04-07T11:56:10.355Z,1.90
2023-04-07T11:58:38.787Z,3.17
2023-04-07T12:01:09.011Z,1.08
2023-04-07T12:03:38.219Z,4.30
2023-04-07T12:06:06.372Z,3.45
2023-04-07T12:08:41.075Z,1.02
2023-04-07T12:11:10.714Z,1.50
2023-04-07T12:13:38.649Z,2.63
2023-04-07T12:16:06.580Z,3.65
2023-04-07T12:18:34.263Z,1.58
2023-04-07T12:21:02.019Z,4.03
2023-04-07T12:23:29.792Z,0.77
2023-04-07T12:25:57.448Z,0.60
2023-04-07T12:28:27.147Z,2.30
2023-04-07T12:30:55.126Z,1.08
2023-04-07T12:33:22.812Z,1.85
2023-04-07T12:35:50.537Z,3.53
2023-04-07T12:38:18.435Z,3.65
2023-04-07T12:40:46.374Z,1.52
2023-04-07T12:43:14.200Z,2.83
2023-04-07T12:45:43.260Z,1.52
2023-04-07T12:48:10.944Z,3.33
2023-04-07T12:50:38.629Z,4.05
2023-04-07T12:53:06.333Z,7.82
2023-04-07T12:55:35.671Z,1.30
2023-04-07T12:58:03.553Z,4.53
2023-04-07T13:00:31.565Z,4.68
2023-04-07T13:03:00.727Z,2.00
2023-04-07T13:05:36.893Z,3.33
2023-04-07T13:08:05.253Z,3.45
2023-04-07T13:10:32.934Z,3.08
2023-04-07T13:13:00.603Z,7.10
2023-04-07T13:15:28.341Z,3.67
2023-04-07T13:17:56.368Z,3.33
2023-04-07T13:20:28.228Z,6.80
2023-04-07T13:25:28.530Z,2.65
2023-04-07T13:27:56.262Z,6.70
2023-04-07T13:30:23.946Z,3.45
2023-04-07T13:32:52.112Z,5.03
2023-04-07T13:35:19.923Z,5.63
2023-04-07T13:37:49.001Z,4.22
2023-04-07T13:40:16.618Z,6.25
2023-04-07T13:42:47.169Z,4.45
2023-04-07T13:45:14.883Z,2.85
2023-04-07T13:47:43.540Z,2.72
2023-04-07T13:50:11.520Z,1.65
2023-04-07T13:52:39.200Z,5.07
2023-04-07T13:55:08.892Z,5.28
2023-04-07T13:57:36.734Z,2.75
2023-04-07T14:00:04.925Z,4.65
2023-04-07T14:02:32.963Z,4.43
2023-04-07T14:05:00.602Z,4.53
2023-04-07T14:07:28.298Z,5.90
2023-04-07T14:09:55.995Z,3.17
2023-04-07T14:12:26.132Z,3.30
2023-04-07T14:14:54.867Z,2.67
2023-04-07T14:17:22.573Z,6.18
2023-04-07T14:19:51.694Z,2.78
2023-04-07T14:22:19.994Z,3.28
2023-04-07T14:24:47.772Z,5.72
2023-04-07T14:27:21.364Z,3.97
2023-04-07T14:29:50.411Z,3.85
2023-04-07T14:32:18.056Z,3.05
2023-04-07T14:34:45.790Z,2.78
2023-04-07T14:37:14.184Z,3.58
2023-04-07T14:39:48.470Z,3.15
2023-04-07T14:42:23.433Z,3.53
2023-04-07T14:44:53.180Z,2.20
2023-04-07T14:47:21.050Z,2.63
2023-04-07T14:49:49.248Z,6.32
2023-04-07T14:52:18.182Z,2.13
2023-04-07T14:54:45.835Z,3.30
2023-04-07T14:57:13.803Z,1.10
2023-04-07T14:59:41.453Z,3.55
2023-04-07T15:02:10.493Z,6.05
2023-04-07T15:04:38.553Z,2.38
2023-04-07T15:07:07.284Z,4.25
2023-04-07T15:09:35.048Z,2.53
2023-04-07T15:12:02.713Z,3.95
2023-04-07T15:14:30.867Z,4.80
2023-04-07T15:16:58.629Z,1.13
2023-04-07T15:19:27.619Z,3.53
2023-04-07T15:21:56.023Z,2.30
2023-04-07T15:24:23.665Z,4.28
2023-04-07T15:26:51.239Z,4.03
2023-04-07T15:29:18.952Z,3.13
2023-04-07T15:31:48.257Z,2.92
2023-04-07T15:34:23.703Z,1.85
2023-04-07T15:39:20.598Z,6.03
2023-04-07T15:41:49.733Z,2.97
2023-04-07T15:44:18.890Z,9.02
2023-04-07T15:46:47.716Z,4.75
2023-04-07T15:49:20.017Z,5.72
2023-04-07T15:51:47.719Z,5.10
2023-04-07T15:54:15.356Z,5.13
2023-04-07T15:56:44.480Z,1.95
2023-04-07T15:59:12.114Z,3.78
2023-04-07T16:01:39.901Z,2.65
2023-04-07T16:04:07.859Z,3.83
2023-04-07T16:06:35.938Z,1.85
2023-04-07T16:09:03.576Z,2.22
2023-04-07T16:11:31.183Z,4.32
2023-04-07T16:14:00.200Z,2.33
2023-04-07T16:16:27.916Z,5.43
2023-04-07T16:18:55.532Z,1.73
2023-04-07T16:21:23.131Z,5.97
2023-04-07T16:23:50.912Z,8.18
2023-04-07T16:26:18.540Z,5.00
2023-04-07T16:28:47.030Z,2.30
2023-04-07T16:31:16.031Z,1.30
2023-04-07T16:33:43.673Z,1.90
2023-04-07T16:36:11.395Z,1.80
2023-04-07T16:38:39.127Z,2.45
2023-04-07T16:41:08.109Z,5.95
2023-04-07T16:43:35.830Z,5.40
2023-04-07T16:46:04.241Z,2.35
2023-04-07T16:48:33.340Z,5.53
2023-04-07T16:51:01.012Z,2.05
2023-04-07T16:53:28.742Z,2.05
2023-04-07T16:55:56.450Z,6.25
2023-04-07T16:58:24.122Z,5.28
2023-04-07T17:00:51.802Z,4.72
2023-04-07T17:03:19.638Z,4.15
2023-04-07T17:05:49.461Z,2.60
2023-04-07T17:08:17.326Z,2.97
2023-04-07T17:10:44.966Z,2.45
2023-04-07T17:13:12.602Z,2.25
2023-04-07T17:15:40.306Z,1.67
2023-04-07T17:18:08.127Z,6.03
2023-04-07T17:20:35.972Z,1.63
2023-04-07T17:23:05.492Z,7.30
2023-04-07T17:25:33.153Z,6.50
2023-04-07T17:28:00.836Z,7.97
2023-04-07T17:30:28.625Z,3.33
2023-04-07T17:32:56.332Z,3.03
2023-04-07T17:35:25.090Z,2.83
2023-04-07T17:37:53.068Z,6.18
2023-04-07T17:40:22.244Z,5.07
2023-04-07T17:42:50.016Z,4.50
2023-04-07T17:45:17.823Z,3.00
2023-04-07T17:47:46.939Z,3.28
2023-04-07T17:50:14.856Z,4.95
2023-04-07T17:53:00.523Z,2.30
2023-04-07T17:55:29.594Z,6.80
2023-04-07T17:58:01.128Z,3.90
2023-04-07T18:00:29.514Z,5.70
2023-04-07T18:02:57.776Z,5.90
2023-04-07T18:05:25.723Z,7.65
2023-04-07T18:07:54.749Z,3.67
2023-04-07T18:10:26.555Z,3.13
2023-04-07T18:12:56.179Z,1.65
2023-04-07T18:15:24.798Z,3.63
2023-04-07T18:17:54.981Z,2.03
2023-04-07T18:20:22.745Z,3.42
2023-04-07T18:22:51.928Z,2.47
2023-04-07T18:25:19.663Z,2.40
2023-04-07T18:27:47.424Z,3.35
2023-04-07T18:30:16.447Z,6.43
2023-04-07T18:32:45.089Z,2.92
2023-04-07T18:35:12.957Z,6.75
2023-04-07T18:37:44.207Z,4.25
2023-04-07T18:40:13.719Z,4.18
2023-04-07T18:42:41.414Z,6.20
2023-04-07T18:45:09.498Z,3.90
2023-04-07T18:47:39.078Z,4.88
2023-04-07T18:50:07.263Z,7.40
2023-04-07T18:52:35.052Z,4.45
2023-04-07T18:55:02.815Z,5.05
2023-04-07T18:57:30.566Z,8.90
2023-04-07T18:59:58.509Z,4.03
2023-04-07T19:02:26.702Z,6.03
2023-04-07T19:04:55.848Z,6.22
2023-04-07T19:07:23.496Z,4.88
2023-04-07T19:09:53.819Z,4.80
2023-04-07T19:12:21.487Z,4.13
2023-04-07T19:14:49.209Z,4.20
2023-04-07T19:17:17.017Z,3.90
2023-04-07T19:19:44.867Z,2.85
2023-04-07T19:22:14.298Z,3.60
2023-04-07T19:24:42.096Z,5.85
2023-04-07T19:27:12.074Z,3.97
2023-04-07T19:29:39.706Z,9.48
2023-04-07T19:32:07.439Z,3.80
2023-04-07T19:34:35.314Z,3.08
2023-04-07T19:37:02.931Z,8.57
2023-04-07T19:39:32.116Z,3.58
2023-04-07T19:42:01.056Z,5.72
2023-04-07T19:44:28.668Z,6.40
2023-04-07T19:46:56.496Z,6.05
2023-04-07T19:49:24.769Z,5.35
2023-04-07T19:51:53.427Z,12.50
2023-04-07T19:54:21.103Z,8.38
2023-04-07T19:56:50.252Z,7.40
2023-04-07T19:59:17.953Z,4.85
2023-04-07T20:01:45.746Z,3.38
2023-04-07T20:04:13.554Z,7.10
2023-04-07T20:06:43.792Z,7.50
2023-04-07T20:09:11.524Z,6.68
2023-04-07T20:11:39.160Z,5.03
2023-04-07T20:14:08.143Z,5.68
2023-04-07T20:16:35.851Z,5.28
2023-04-07T20:19:04.512Z,5.75
2023-04-07T20:21:32.980Z,9.68
2023-04-07T20:24:00.994Z,5.15
2023-04-07T20:26:28.635Z,5.57
2023-04-07T20:28:56.428Z,8.82
2023-04-07T20:31:25.461Z,5.65
2023-04-07T20:33:53.184Z,5.78
2023-04-07T20:36:21.026Z,4.00
2023-04-07T20:38:49.165Z,7.78
2023-04-07T20:41:17.613Z,5.03
2023-04-07T20:43:45.574Z,6.07
2023-04-07T20:46:13.427Z,5.20
2023-04-07T20:48:42.445Z,5.35
2023-04-07T20:51:10.184Z,7.40
2023-04-07T20:53:37.884Z,8.00
2023-04-07T20:56:05.664Z,5.95
2023-04-07T20:58:33.579Z,11.40
2023-04-07T21:01:01.597Z,6.35
2023-04-07T21:03:31.024Z,10.10
2023-04-07T21:06:00.917Z,4.97
2023-04-07T21:08:29.147Z,6.63
2023-04-07T21:10:57.170Z,10.63
2023-04-07T21:13:27.163Z,9.18
2023-04-07T21:15:54.918Z,8.18
2023-04-07T21:18:22.669Z,9.95
2023-04-07T21:20:50.722Z,5.82
2023-04-07T21:23:19.695Z,5.88
2023-04-07T21:25:47.641Z,8.50
2023-04-07T21:28:15.707Z,7.88
2023-04-07T21:30:43.408Z,9.85
2023-04-07T21:33:11.198Z,6.38
2023-04-07T21:35:39.371Z,11.77
2023-04-07T21:38:07.088Z,10.18
2023-04-07T21:40:36.145Z,11.90
2023-04-07T21:43:03.889Z,16.20
2023-04-07T21:45:32.128Z,10.10
2023-04-07T21:50:48.035Z,7.35
2023-04-07T21:53:15.654Z,8.88
2023-04-07T21:55:44.692Z,10.48
2023-04-07T21:58:12.407Z,7.15
2023-04-07T22:00:40.147Z,9.38
2023-04-07T22:03:08.003Z,10.68
2023-04-07T22:05:36.141Z,9.68
2023-04-07T22:08:04.164Z,10.82
2023-04-07T22:10:32.305Z,12.57
2023-04-07T22:13:01.458Z,12.60
2023-04-07T22:15:29.082Z,10.65
2023-04-07T22:17:57.770Z,8.35
2023-04-07T22:20:27.916Z,10.20
2023-04-07T22:22:57.616Z,7.35
2023-04-07T22:25:25.625Z,6.85
2023-04-07T22:27:53.785Z,9.23
2023-04-07T22:30:25.188Z,7.95
2023-04-07T22:32:52.846Z,8.85
2023-04-07T22:35:21.344Z,10.50
2023-04-07T22:37:49.048Z,11.07
2023-04-07T22:40:16.728Z,12.30
2023-04-07T22:42:44.545Z,10.25
2023-04-07T22:45:12.172Z,13.90
2023-04-07T22:47:41.649Z,7.60
2023-04-07T22:50:09.556Z,12.68
2023-04-07T22:52:37.167Z,8.27
2023-04-07T22:55:04.995Z,7.90
2023-04-07T22:57:32.580Z,16.73
2023-04-07T23:00:00.574Z,13.10
2023-04-07T23:02:28.351Z,9.77
2023-04-07T23:04:57.435Z,15.32
2023-04-07T23:07:25.107Z,12.07
2023-04-07T23:09:53.574Z,10.02
2023-04-07T23:12:21.364Z,7.75
2023-04-07T23:14:49.064Z,9.73
2023-04-07T23:17:17.072Z,11.60
2023-04-07T23:19:44.885Z,7.00
2023-04-07T23:22:13.842Z,6.30
2023-04-07T23:24:41.685Z,13.23
2023-04-07T23:27:09.373Z,5.70
2023-04-07T23:29:37.314Z,10.07
2023-04-07T23:32:06.773Z,9.25
2023-04-07T23:34:34.419Z,12.35
2023-04-07T23:37:02.331Z,10.10
2023-04-07T23:39:31.742Z,8.07
2023-04-07T23:42:00.054Z,11.15
2023-04-07T23:44:27.702Z,11.90
2023-04-07T23:46:55.346Z,8.65
2023-04-07T23:49:23.078Z,9.38
2023-04-07T23:51:51.347Z,9.32
2023-04-07T23:54:18.950Z,9.90
2023-04-07T23:56:47.980Z,9.88
2023-04-07T23:59:15.733Z,10.68
